Time;durP1;ratioP1;P1;durP2;ratioP2;P2;SDS_P1;SDS_P2;PMS_P1;PMS_P2;Temp;Humidity;BMP_temperature;BMP_pressure;BME280_temperature;BME280_humidity;BME280_pressure;Samples;Min_cycle;Max_cycle;Signal;HPM_P1;HPM_P2
2022/03/08 00:00:39;;;;;;;;;33.00;29.00;;;;;;;;5186213;27;13240;-80
2022/03/08 00:03:05;;;;;;;;;39.00;33.67;;;;;;;;5166563;27;16826;-80
2022/03/08 00:05:30;;;;;;;;;34.33;29.33;;;;;;;;5185774;27;12958;-79
2022/03/08 00:07:56;;;;;;;;;29.33;26.67;;;;;;;;5167231;27;15208;-79
2022/03/08 00:10:21;;;;;;;;;31.00;29.67;;;;;;;;5186282;27;13328;-80
2022/03/08 00:12:47;;;;;;;;;30.00;27.67;;;;;;;;5186210;27;12726;-79
2022/03/08 00:15:14;;;;;;;;;35.00;30.67;;;;;;;;5166673;27;10969;-80
2022/03/08 00:17:39;;;;;;;;;40.00;34.33;;;;;;;;5185430;27;9856;-80
2022/03/08 00:20:06;;;;;;;;;37.33;31.33;;;;;;;;5185275;27;13471;-79
2022/03/08 00:22:32;;;;;;;;;35.00;26.00;;;;;;;;5186099;27;12250;-80
2022/03/08 00:24:58;;;;;;;;;37.33;35.00;;;;;;;;5186085;27;12202;-84
2022/03/08 00:27:23;;;;;;;;;25.00;23.00;;;;;;;;5185638;27;11448;-84
2022/03/08 00:29:48;;;;;;;;;28.67;22.67;;;;;;;;5185296;27;12588;-83
2022/03/08 00:32:13;;;;;;;;;29.67;26.67;;;;;;;;5166810;27;12072;-84
2022/03/08 00:34:39;;;;;;;;;38.67;31.33;;;;;;;;5185904;27;9091;-78
2022/03/08 00:37:04;;;;;;;;;28.00;26.67;;;;;;;;5185519;27;13213;-78
2022/03/08 00:39:32;;;;;;;;;32.67;28.00;;;;;;;;5185917;27;13226;-81
2022/03/08 00:41:58;;;;;;;;;29.33;22.67;;;;;;;;5187562;27;13325;-82
2022/03/08 00:44:23;;;;;;;;;29.33;28.00;;;;;;;;5193292;27;13514;-82
2022/03/08 00:46:48;;;;;;;;;30.33;26.33;;;;;;;;5182438;27;10933;-83
2022/03/08 00:49:14;;;;;;;;;23.67;19.00;;;;;;;;5167268;27;15290;-82
2022/03/08 00:51:39;;;;;;;;;26.33;24.33;;;;;;;;5184896;27;13412;-83
2022/03/08 00:54:04;;;;;;;;;20.00;16.33;;;;;;;;5185266;27;12686;-83
2022/03/08 00:56:29;;;;;;;;;26.67;21.33;;;;;;;;5184966;27;12011;-83
2022/03/08 00:58:55;;;;;;;;;29.00;25.67;;;;;;;;5185973;27;11646;-83
2022/03/08 01:01:20;;;;;;;;;15.67;8.00;;;;;;;;5185807;27;11670;-82
2022/03/08 01:03:45;;;;;;;;;22.33;22.00;;;;;;;;5185292;27;23003;-83
2022/03/08 01:06:11;;;;;;;;;25.00;19.00;;;;;;;;5166107;27;23178;-82
2022/03/08 01:08:36;;;;;;;;;20.00;19.67;;;;;;;;5184935;27;11374;-82
2022/03/08 01:11:02;;;;;;;;;23.67;22.00;;;;;;;;5185117;27;11494;-83
2022/03/08 01:13:27;;;;;;;;;22.67;20.67;;;;;;;;5184230;27;12761;-83
2022/03/08 01:15:52;;;;;;;;;28.33;25.00;;;;;;;;5184939;27;11954;-83
2022/03/08 01:18:18;;;;;;;;;28.00;25.00;;;;;;;;5184311;27;11438;-83
2022/03/08 01:20:43;;;;;;;;;30.33;23.67;;;;;;;;5184801;27;8784;-84
2022/03/08 01:23:08;;;;;;;;;29.67;25.33;;;;;;;;5184797;27;13699;-83
2022/03/08 01:25:34;;;;;;;;;25.67;22.00;;;;;;;;5184680;27;14497;-83
2022/03/08 01:27:59;;;;;;;;;31.67;25.00;;;;;;;;5184546;27;11857;-83
2022/03/08 01:30:25;;;;;;;;;24.00;22.67;;;;;;;;5185545;27;10546;-83
2022/03/08 01:32:50;;;;;;;;;23.33;22.33;;;;;;;;5184806;27;13266;-83
2022/03/08 01:35:18;;;;;;;;;20.67;20.00;;;;;;;;5184590;27;11791;-83
2022/03/08 01:37:43;;;;;;;;;30.33;26.00;;;;;;;;5184392;27;11800;-83
2022/03/08 01:40:13;;;;;;;;;22.67;20.67;;;;;;;;5184254;27;12414;-81
2022/03/08 01:42:40;;;;;;;;;25.00;21.67;;;;;;;;5184311;27;13516;-83
2022/03/08 01:45:06;;;;;;;;;27.33;22.67;;;;;;;;5185193;27;11036;-86
2022/03/08 01:47:31;;;;;;;;;26.00;26.00;;;;;;;;5184924;27;10425;-85
2022/03/08 01:49:56;;;;;;;;;25.33;22.33;;;;;;;;5184703;27;12874;-85
2022/03/08 01:52:23;;;;;;;;;25.67;22.00;;;;;;;;5184786;27;11990;-85
2022/03/08 01:54:50;;;;;;;;;25.67;22.00;;;;;;;;5183858;27;8852;-84
2022/03/08 01:57:17;;;;;;;;;27.33;24.33;;;;;;;;5185282;27;8776;-83
2022/03/08 01:59:43;;;;;;;;;24.33;22.00;;;;;;;;5182902;27;11987;-83
2022/03/08 02:02:10;;;;;;;;;21.33;20.00;;;;;;;;5165779;27;11976;-83
2022/03/08 02:04:35;;;;;;;;;21.33;16.33;;;;;;;;5184636;27;8835;-84
2022/03/08 02:07:01;;;;;;;;;19.67;16.00;;;;;;;;5165051;27;10579;-83
2022/03/08 02:09:26;;;;;;;;;19.33;15.67;;;;;;;;5183908;27;13690;-83
2022/03/08 02:11:51;;;;;;;;;17.67;17.67;;;;;;;;5183736;27;11685;-87
2022/03/08 02:14:17;;;;;;;;;20.00;19.00;;;;;;;;5183187;27;10627;-86
2022/03/08 02:16:43;;;;;;;;;31.67;22.33;;;;;;;;5183517;27;14558;-87
2022/03/08 02:19:12;;;;;;;;;21.67;17.67;;;;;;;;5164361;27;15151;-84
2022/03/08 02:21:37;;;;;;;;;18.33;13.33;;;;;;;;5183332;27;13305;-84
2022/03/08 02:24:03;;;;;;;;;25.00;24.33;;;;;;;;5183532;27;13484;-85
2022/03/08 02:26:28;;;;;;;;;20.33;17.33;;;;;;;;5184478;27;12775;-86
2022/03/08 02:28:54;;;;;;;;;20.00;18.33;;;;;;;;5184482;27;12578;-85
2022/03/08 02:31:20;;;;;;;;;23.33;19.67;;;;;;;;5184171;27;9993;-85
2022/03/08 02:33:45;;;;;;;;;23.00;19.33;;;;;;;;5183576;27;11645;-84
2022/03/08 02:36:10;;;;;;;;;23.00;19.67;;;;;;;;5183757;27;9808;-85
2022/03/08 02:38:35;;;;;;;;;27.33;22.00;;;;;;;;5184161;27;8800;-84
2022/03/08 02:41:01;;;;;;;;;18.33;16.33;;;;;;;;5183456;27;13407;-86
2022/03/08 02:43:26;;;;;;;;;30.00;23.67;;;;;;;;5183455;27;13558;-85
2022/03/08 02:45:51;;;;;;;;;15.33;11.00;;;;;;;;5183583;27;13691;-85
2022/03/08 02:48:17;;;;;;;;;31.33;22.00;;;;;;;;5183336;27;13994;-85
2022/03/08 02:50:42;;;;;;;;;31.33;25.33;;;;;;;;5164334;27;13026;-85
2022/03/08 02:53:07;;;;;;;;;26.67;20.00;;;;;;;;5183526;27;8911;-85
2022/03/08 02:55:34;;;;;;;;;25.00;25.00;;;;;;;;5182691;27;13293;-84
2022/03/08 02:57:59;;;;;;;;;26.00;25.00;;;;;;;;5183834;27;10451;-83
2022/03/08 03:00:25;;;;;;;;;28.67;25.00;;;;;;;;5164424;27;9510;-84
2022/03/08 03:02:51;;;;;;;;;31.00;23.67;;;;;;;;5183208;27;9267;-84
2022/03/08 03:05:17;;;;;;;;;33.33;27.33;;;;;;;;5182672;27;13423;-85
2022/03/08 03:07:42;;;;;;;;;16.00;14.00;;;;;;;;5183009;27;12128;-84
2022/03/08 03:10:09;;;;;;;;;31.00;25.00;;;;;;;;5182453;27;14003;-85
2022/03/08 03:12:35;;;;;;;;;35.00;26.00;;;;;;;;5183271;27;10968;-84
2022/03/08 03:15:00;;;;;;;;;31.67;24.33;;;;;;;;5163898;27;9134;-85
2022/03/08 03:17:25;;;;;;;;;29.33;24.33;;;;;;;;5182806;27;11596;-85
2022/03/08 03:19:51;;;;;;;;;28.67;23.67;;;;;;;;5164008;27;10585;-85
2022/03/08 03:22:16;;;;;;;;;25.33;22.00;;;;;;;;5182575;27;11381;-85
2022/03/08 03:24:41;;;;;;;;;28.00;20.67;;;;;;;;5182722;27;11394;-85
2022/03/08 03:27:06;;;;;;;;;29.00;22.33;;;;;;;;5163893;27;14079;-84
2022/03/08 03:29:32;;;;;;;;;29.67;25.00;;;;;;;;5182655;27;11618;-85
2022/03/08 03:31:57;;;;;;;;;18.33;18.33;;;;;;;;5163420;27;13869;-84
2022/03/08 03:34:22;;;;;;;;;28.00;23.00;;;;;;;;5183225;27;13243;-85
2022/03/08 03:36:47;;;;;;;;;29.00;22.00;;;;;;;;5183356;27;13233;-84
2022/03/08 03:39:13;;;;;;;;;28.00;22.00;;;;;;;;5164158;27;12139;-84
2022/03/08 03:41:38;;;;;;;;;29.00;22.33;;;;;;;;5164103;27;8815;-85
2022/03/08 03:44:03;;;;;;;;;25.33;19.33;;;;;;;;5182653;27;11902;-85
2022/03/08 03:46:29;;;;;;;;;24.67;19.33;;;;;;;;5163804;27;13703;-84
2022/03/08 03:48:54;;;;;;;;;30.67;22.33;;;;;;;;5182916;27;9192;-85
2022/03/08 03:51:19;;;;;;;;;31.00;24.50;;;;;;;;5182467;27;10546;-84
2022/03/08 03:53:45;;;;;;;;;27.00;23.75;;;;;;;;5181662;27;11533;-84
2022/03/08 03:56:10;;;;;;;;;27.33;20.67;;;;;;;;5182568;27;13762;-84
2022/03/08 03:58:36;;;;;;;;;30.00;20.67;;;;;;;;5163231;27;12605;-84
2022/03/08 04:01:01;;;;;;;;;24.67;22.00;;;;;;;;5182101;27;10188;-83
2022/03/08 04:03:27;;;;;;;;;26.00;22.00;;;;;;;;5181950;27;13396;-85
2022/03/08 04:05:52;;;;;;;;;23.00;19.33;;;;;;;;5183458;27;9085;-84
2022/03/08 04:08:20;;;;;;;;;19.33;19.00;;;;;;;;5163584;27;14568;-85
2022/03/08 04:10:46;;;;;;;;;24.33;16.67;;;;;;;;5181660;27;13963;-86
2022/03/08 04:13:11;;;;;;;;;20.33;16.33;;;;;;;;5182035;27;14710;-86
2022/03/08 04:15:37;;;;;;;;;26.00;17.67;;;;;;;;5182346;27;11723;-84
2022/03/08 04:18:02;;;;;;;;;20.00;17.33;;;;;;;;5164340;27;12995;-84
2022/03/08 04:20:27;;;;;;;;;17.33;13.00;;;;;;;;5163366;27;11336;-83
2022/03/08 04:22:53;;;;;;;;;30.00;18.67;;;;;;;;5184704;27;13672;-83
2022/03/08 04:25:18;;;;;;;;;21.00;12.00;;;;;;;;5185971;27;13275;-82
2022/03/08 04:27:43;;;;;;;;;19.67;16.00;;;;;;;;5185960;27;14769;-81
2022/03/08 04:30:09;;;;;;;;;20.00;16.33;;;;;;;;5186060;27;12168;-82
2022/03/08 04:32:35;;;;;;;;;19.33;17.00;;;;;;;;5185513;27;14022;-83
2022/03/08 04:35:00;;;;;;;;;19.67;15.00;;;;;;;;5166605;27;13964;-84
2022/03/08 04:37:25;;;;;;;;;18.33;16.00;;;;;;;;5167006;27;10895;-86
2022/03/08 04:39:51;;;;;;;;;21.00;16.67;;;;;;;;5185037;27;11170;-85
2022/03/08 04:42:16;;;;;;;;;18.33;14.33;;;;;;;;5186508;27;13335;-84
2022/03/08 04:44:41;;;;;;;;;16.33;14.33;;;;;;;;5185943;27;14550;-85
2022/03/08 04:47:09;;;;;;;;;20.00;14.00;;;;;;;;5167698;27;8798;-86
2022/03/08 04:49:35;;;;;;;;;20.67;17.00;;;;;;;;5186262;27;13490;-85
2022/03/08 04:52:00;;;;;;;;;21.67;17.67;;;;;;;;5166414;27;12225;-84
2022/03/08 04:54:25;;;;;;;;;25.00;21.67;;;;;;;;5184369;27;11945;-84
2022/03/08 04:56:51;;;;;;;;;19.33;18.67;;;;;;;;5186515;27;13392;-86
2022/03/08 04:59:17;;;;;;;;;21.67;21.33;;;;;;;;5167822;27;14769;-82
2022/03/08 05:01:44;;;;;;;;;23.00;19.67;;;;;;;;5185810;27;14942;-82
2022/03/08 05:04:09;;;;;;;;;22.33;18.67;;;;;;;;5167334;27;12318;-83
2022/03/08 05:06:35;;;;;;;;;20.33;20.00;;;;;;;;5167170;27;12507;-82
2022/03/08 05:09:01;;;;;;;;;21.67;18.33;;;;;;;;5189904;27;12882;-82
2022/03/08 05:11:26;;;;;;;;;24.00;19.00;;;;;;;;5176218;27;15630;-83
2022/03/08 05:13:51;;;;;;;;;19.67;19.67;;;;;;;;5168614;27;13597;-82
2022/03/08 05:16:16;;;;;;;;;20.00;15.33;;;;;;;;5166423;27;16542;-84
2022/03/08 05:18:42;;;;;;;;;20.00;13.00;;;;;;;;5165960;27;15848;-83
2022/03/08 05:21:07;;;;;;;;;23.00;17.67;;;;;;;;5166132;27;10291;-83
2022/03/08 05:23:33;;;;;;;;;16.67;14.67;;;;;;;;5165633;27;13483;-82
2022/03/08 05:25:58;;;;;;;;;18.33;16.00;;;;;;;;5183568;27;13237;-78
2022/03/08 05:28:24;;;;;;;;;20.67;20.33;;;;;;;;5163689;27;13499;-83
2022/03/08 05:30:50;;;;;;;;;24.67;21.00;;;;;;;;5182402;27;13285;-82
2022/03/08 05:33:16;;;;;;;;;27.67;20.67;;;;;;;;5164450;27;13350;-81
2022/03/08 05:35:41;;;;;;;;;24.75;21.50;;;;;;;;5183126;27;11953;-78
2022/03/08 05:38:06;;;;;;;;;29.75;22.25;;;;;;;;5182342;27;11605;-78
2022/03/08 05:40:33;;;;;;;;;29.25;21.50;;;;;;;;5164014;27;13152;-81
2022/03/08 05:43:00;;;;;;;;;17.67;16.00;;;;;;;;5164859;27;11916;-85
2022/03/08 05:45:25;;;;;;;;;25.75;20.25;;;;;;;;5165255;27;15680;-85
2022/03/08 05:47:51;;;;;;;;;24.50;23.50;;;;;;;;5164724;27;16716;-83
2022/03/08 05:50:16;;;;;;;;;19.75;18.00;;;;;;;;5183797;27;13035;-84
2022/03/08 05:52:41;;;;;;;;;25.50;21.25;;;;;;;;5164297;27;15535;-86
2022/03/08 05:55:07;;;;;;;;;30.75;22.75;;;;;;;;5165966;27;15462;-84
2022/03/08 05:57:32;;;;;;;;;31.00;25.75;;;;;;;;5165437;27;14637;-83
2022/03/08 05:59:58;;;;;;;;;25.75;23.50;;;;;;;;5178601;27;13205;-84
2022/03/08 06:02:23;;;;;;;;;20.50;19.50;;;;;;;;5173704;27;15740;-83
2022/03/08 06:04:49;;;;;;;;;27.00;23.25;;;;;;;;5190327;27;11923;-82
2022/03/08 06:07:14;;;;;;;;;21.50;20.25;;;;;;;;5175353;27;13325;-80
2022/03/08 06:09:39;;;;;;;;;30.75;26.75;;;;;;;;5189004;27;10997;-80
2022/03/08 06:12:05;;;;;;;;;27.50;25.50;;;;;;;;5192438;27;12731;-79
2022/03/08 06:14:30;;;;;;;;;22.25;20.00;;;;;;;;5183773;27;13229;-78
2022/03/08 06:16:56;;;;;;;;;33.25;25.25;;;;;;;;5185132;27;12506;-78
2022/03/08 06:19:25;;;;;;;;;27.00;22.25;;;;;;;;5184861;27;13221;-78
2022/03/08 06:21:51;;;;;;;;;31.25;22.00;;;;;;;;5165727;27;12516;-78
2022/03/08 06:24:16;;;;;;;;;20.00;16.75;;;;;;;;5183004;27;13533;-79
2022/03/08 06:26:44;;;;;;;;;27.00;23.50;;;;;;;;5181980;27;13374;-76
2022/03/08 06:29:10;;;;;;;;;28.50;25.50;;;;;;;;5163061;27;12947;-75
2022/03/08 06:31:38;;;;;;;;;37.00;26.75;;;;;;;;5163731;27;13372;-76
2022/03/08 06:35:01;;;;;;;;;22.75;22.00;;;;;;;;5204789;27;76899;-74
2022/03/08 06:37:26;;;;;;;;;27.75;26.75;;;;;;;;5187551;27;22461;-73
2022/03/08 06:39:52;;;;;;;;;30.00;26.75;;;;;;;;5187486;27;11651;-77
2022/03/08 06:42:18;;;;;;;;;27.00;25.25;;;;;;;;5200420;27;10242;-77
2022/03/08 06:44:44;;;;;;;;;33.25;28.50;;;;;;;;5186345;27;13383;-80
2022/03/08 06:47:09;;;;;;;;;38.75;31.25;;;;;;;;5178328;27;13553;-76
2022/03/08 06:49:38;;;;;;;;;42.75;35.00;;;;;;;;5178957;27;12233;-78
2022/03/08 06:52:04;;;;;;;;;37.25;31.75;;;;;;;;5179014;27;13630;-79
2022/03/08 06:54:29;;;;;;;;;38.75;34.50;;;;;;;;5179905;27;13368;-76
2022/03/08 06:56:54;;;;;;;;;40.75;36.00;;;;;;;;5179551;27;11957;-79
2022/03/08 06:59:19;;;;;;;;;39.50;35.50;;;;;;;;5179966;27;13356;-85
2022/03/08 07:01:45;;;;;;;;;33.25;30.50;;;;;;;;5179933;27;15291;-83
2022/03/08 07:04:10;;;;;;;;;30.75;29.25;;;;;;;;5160547;27;13468;-84
2022/03/08 07:06:35;;;;;;;;;25.25;20.00;;;;;;;;5159450;27;14569;-81
2022/03/08 07:09:01;;;;;;;;;24.00;21.00;;;;;;;;5178054;27;13746;-86
2022/03/08 07:11:26;;;;;;;;;16.00;16.00;;;;;;;;5160692;27;10446;-81
2022/03/08 07:13:51;;;;;;;;;6.00;6.00;;;;;;;;5162357;27;11166;-79
2022/03/08 07:16:18;;;;;;;;;13.33;11.33;;;;;;;;5187721;27;22109;-76
2022/03/08 07:18:43;;;;;;;;;13.67;10.67;;;;;;;;5182386;27;22384;-78
2022/03/08 07:21:09;;;;;;;;;13.00;10.00;;;;;;;;5191023;27;10327;-80
2022/03/08 07:23:34;;;;;;;;;12.00;11.33;;;;;;;;5188176;27;8800;-77
2022/03/08 07:25:59;;;;;;;;;12.00;12.00;;;;;;;;5188822;27;11356;-76
2022/03/08 07:28:24;;;;;;;;;10.00;10.00;;;;;;;;5187069;27;9651;-78
2022/03/08 07:30:50;;;;;;;;;14.67;7.33;;;;;;;;5169409;27;10929;-78
2022/03/08 07:33:15;;;;;;;;;12.00;10.67;;;;;;;;5168507;27;23371;-80
2022/03/08 07:35:41;;;;;;;;;9.00;9.00;;;;;;;;5186097;27;21490;-80
2022/03/08 07:38:06;;;;;;;;;14.67;12.67;;;;;;;;5188728;27;22505;-80
2022/03/08 07:40:31;;;;;;;;;14.00;10.00;;;;;;;;5186312;27;22897;-84
2022/03/08 07:42:56;;;;;;;;;12.33;9.00;;;;;;;;5189156;27;10572;-86
2022/03/08 07:45:22;;;;;;;;;12.00;8.00;;;;;;;;5162707;27;24791;-85
2022/03/08 07:47:47;;;;;;;;;10.67;8.33;;;;;;;;5153407;27;12324;-83
2022/03/08 07:50:12;;;;;;;;;9.33;6.00;;;;;;;;5153658;27;12386;-85
2022/03/08 07:52:38;;;;;;;;;13.00;8.67;;;;;;;;5176010;27;21924;-80
2022/03/08 07:55:04;;;;;;;;;14.00;8.33;;;;;;;;5187298;27;21878;-84
2022/03/08 07:57:29;;;;;;;;;9.00;9.00;;;;;;;;5159583;27;10492;-83
2022/03/08 07:59:55;;;;;;;;;7.33;7.33;;;;;;;;5172962;27;21994;-83
2022/03/08 08:02:20;;;;;;;;;9.67;8.33;;;;;;;;5174049;27;11444;-84
2022/03/08 08:04:45;;;;;;;;;8.67;8.67;;;;;;;;5154303;27;12450;-84
2022/03/08 08:07:11;;;;;;;;;13.33;10.00;;;;;;;;5169450;27;11320;-85
2022/03/08 08:09:37;;;;;;;;;5.00;5.00;;;;;;;;5155417;27;24705;-82
2022/03/08 08:12:02;;;;;;;;;11.33;6.67;;;;;;;;5152274;27;24836;-82
2022/03/08 08:14:28;;;;;;;;;7.00;6.33;;;;;;;;5171501;27;21972;-80
2022/03/08 08:16:53;;;;;;;;;11.00;9.33;;;;;;;;5173834;27;21293;-81
2022/03/08 08:19:18;;;;;;;;;9.33;8.00;;;;;;;;5174183;27;21761;-80
2022/03/08 08:21:43;;;;;;;;;8.00;7.00;;;;;;;;5173377;27;21660;-80
2022/03/08 08:24:09;;;;;;;;;8.00;8.00;;;;;;;;5171974;27;10831;-80
2022/03/08 08:26:34;;;;;;;;;9.50;8.00;;;;;;;;5172115;27;8791;-82
2022/03/08 08:28:59;;;;;;;;;8.00;5.75;;;;;;;;5173263;27;9345;-81
2022/03/08 08:31:28;;;;;;;;;6.25;5.50;;;;;;;;5173590;27;11543;-81
2022/03/08 08:33:53;;;;;;;;;10.25;8.00;;;;;;;;5171034;27;11684;-80
2022/03/08 08:36:19;;;;;;;;;7.25;6.75;;;;;;;;5179411;27;21354;-81
2022/03/08 08:38:44;;;;;;;;;7.75;7.00;;;;;;;;5185068;27;23089;-82
2022/03/08 08:41:09;;;;;;;;;10.00;7.75;;;;;;;;5185562;27;10710;-81
2022/03/08 08:43:35;;;;;;;;;10.00;10.00;;;;;;;;5186350;27;21889;-82
2022/03/08 08:46:00;;;;;;;;;7.50;7.50;;;;;;;;5182053;27;18124;-81
2022/03/08 08:48:26;;;;;;;;;7.50;7.50;;;;;;;;5173988;27;22713;-81
2022/03/08 08:50:52;;;;;;;;;8.75;8.00;;;;;;;;5174129;27;8891;-80
2022/03/08 08:53:18;;;;;;;;;9.00;7.50;;;;;;;;5153014;27;13564;-81
2022/03/08 08:55:43;;;;;;;;;9.75;8.25;;;;;;;;5172370;27;11698;-81
2022/03/08 08:58:08;;;;;;;;;8.00;8.00;;;;;;;;5171524;27;10819;-80
2022/03/08 09:00:34;;;;;;;;;5.50;5.00;;;;;;;;5174950;27;11694;-80
2022/03/08 09:03:01;;;;;;;;;7.25;7.25;;;;;;;;5154274;27;12761;-81
2022/03/08 09:05:27;;;;;;;;;8.00;8.00;;;;;;;;5153861;27;14145;-81
2022/03/08 09:07:52;;;;;;;;;8.00;7.00;;;;;;;;5153009;27;13735;-81
2022/03/08 09:10:19;;;;;;;;;6.00;6.00;;;;;;;;5155912;27;9546;-82
2022/03/08 09:12:48;;;;;;;;;7.00;7.00;;;;;;;;5175929;27;8803;-81
2022/03/08 09:15:17;;;;;;;;;9.00;9.00;;;;;;;;5157609;27;10334;-82
2022/03/08 09:17:42;;;;;;;;;8.00;8.00;;;;;;;;5180144;27;9288;-83
2022/03/08 09:20:08;;;;;;;;;7.00;7.00;;;;;;;;5172137;27;9104;-78
2022/03/08 09:22:33;;;;;;;;;8.00;8.00;;;;;;;;5180142;27;8912;-82
2022/03/08 09:24:59;;;;;;;;;8.00;8.00;;;;;;;;5154492;27;10794;-80
2022/03/08 09:27:24;;;;;;;;;8.00;8.00;;;;;;;;5167239;27;8867;-80
2022/03/08 09:29:49;;;;;;;;;8.00;7.33;;;;;;;;5150224;27;8848;-80
2022/03/08 09:32:14;;;;;;;;;9.00;9.00;;;;;;;;5156498;27;10946;-79
2022/03/08 09:34:42;;;;;;;;;9.00;9.00;;;;;;;;5152059;27;14544;-80
2022/03/08 09:37:08;;;;;;;;;8.00;8.00;;;;;;;;5175246;27;8795;-79
2022/03/08 09:39:37;;;;;;;;;7.25;7.25;;;;;;;;5174484;27;9087;-78
2022/03/08 09:42:03;;;;;;;;;7.00;7.00;;;;;;;;5174260;27;12856;-78
2022/03/08 09:44:29;;;;;;;;;7.00;7.00;;;;;;;;5174453;27;8871;-80
2022/03/08 09:46:54;;;;;;;;;11.00;11.00;;;;;;;;5173152;27;8800;-79
2022/03/08 09:49:19;;;;;;;;;9.67;8.00;;;;;;;;5174530;27;22657;-79
2022/03/08 09:51:45;;;;;;;;;10.00;8.33;;;;;;;;5177323;27;23825;-79
2022/03/08 09:54:11;;;;;;;;;9.00;8.00;;;;;;;;5185219;27;21473;-79
2022/03/08 09:56:36;;;;;;;;;7.00;7.00;;;;;;;;5179274;27;21629;-80
2022/03/08 09:59:02;;;;;;;;;9.67;9.67;;;;;;;;5177395;27;8883;-80
2022/03/08 10:01:28;;;;;;;;;9.00;8.00;;;;;;;;5171758;27;11530;-79
2022/03/08 10:03:53;;;;;;;;;12.00;9.75;;;;;;;;5153228;27;12404;-80
2022/03/08 10:06:19;;;;;;;;;8.00;8.00;;;;;;;;5170632;27;21592;-80
2022/03/08 10:08:45;;;;;;;;;9.00;9.00;;;;;;;;5176836;27;21370;-79
2022/03/08 10:11:14;;;;;;;;;8.67;7.67;;;;;;;;5164036;27;10649;-80
2022/03/08 10:13:46;;;;;;;;;9.00;9.00;;;;;;;;5177479;27;11533;-78
2022/03/08 10:16:24;;;;;;;;;5.50;4.50;;;;;;;;5170890;27;11802;-79
2022/03/08 10:18:51;;;;;;;;;9.00;9.00;;;;;;;;5175365;27;11927;-80
2022/03/08 10:21:28;;;;;;;;;8.80;8.80;;;;;;;;5182309;27;11761;-79
2022/03/08 10:23:54;;;;;;;;;7.50;7.50;;;;;;;;5172273;27;12786;-79
2022/03/08 10:26:21;;;;;;;;;6.80;6.80;;;;;;;;5171568;27;11634;-79
2022/03/08 10:28:47;;;;;;;;;7.40;7.00;;;;;;;;5167688;27;11559;-78
2022/03/08 10:31:14;;;;;;;;;9.75;9.75;;;;;;;;5170801;27;11993;-79
2022/03/08 10:33:40;;;;;;;;;11.00;10.50;;;;;;;;5172828;27;12073;-81
2022/03/08 10:36:10;;;;;;;;;9.00;8.00;;;;;;;;5169772;27;22786;-78
2022/03/08 10:38:36;;;;;;;;;10.00;9.00;;;;;;;;5170106;27;22775;-79
2022/03/08 10:41:15;;;;;;;;;11.00;9.33;;;;;;;;5171938;27;21447;-79
2022/03/08 10:43:48;;;;;;;;;8.75;8.75;;;;;;;;5170695;27;10741;-80
2022/03/08 10:46:16;;;;;;;;;7.25;7.00;;;;;;;;5169776;27;21802;-79
2022/03/08 10:48:42;;;;;;;;;9.75;9.75;;;;;;;;5152629;27;11839;-81
2022/03/08 10:51:12;;;;;;;;;9.33;9.33;;;;;;;;5170811;27;11434;-79
2022/03/08 10:53:38;;;;;;;;;9.00;9.00;;;;;;;;5173389;27;8985;-81
2022/03/08 10:56:07;;;;;;;;;7.33;7.33;;;;;;;;5171733;27;8893;-80
2022/03/08 10:58:32;;;;;;;;;7.75;7.75;;;;;;;;5171409;27;11900;-80
2022/03/08 11:00:59;;;;;;;;;8.00;8.00;;;;;;;;5173392;27;8776;-79
2022/03/08 11:03:27;;;;;;;;;9.50;9.50;;;;;;;;5170660;27;12472;-79
2022/03/08 11:05:54;;;;;;;;;9.50;9.00;;;;;;;;5151477;27;11756;-80
2022/03/08 11:08:20;;;;;;;;;6.67;6.00;;;;;;;;5172992;27;8807;-79
2022/03/08 11:10:46;;;;;;;;;8.67;8.67;;;;;;;;5170971;27;10750;-79
2022/03/08 11:13:12;;;;;;;;;11.50;9.75;;;;;;;;5165327;27;11881;-80
2022/03/08 11:15:38;;;;;;;;;9.75;9.25;;;;;;;;5160957;27;22752;-79
2022/03/08 11:18:06;;;;;;;;;9.25;9.25;;;;;;;;5160882;27;21969;-78
2022/03/08 11:20:31;;;;;;;;;8.00;8.00;;;;;;;;5162996;27;10003;-80
2022/03/08 11:22:58;;;;;;;;;12.50;10.00;;;;;;;;5164532;27;11357;-79
2022/03/08 11:25:28;;;;;;;;;11.75;11.50;;;;;;;;5165558;27;22879;-80
2022/03/08 11:27:54;;;;;;;;;10.00;10.00;;;;;;;;5165530;27;11679;-80
2022/03/08 11:30:22;;;;;;;;;9.00;9.00;;;;;;;;5165645;27;11413;-81
2022/03/08 11:32:50;;;;;;;;;11.00;10.50;;;;;;;;5145132;27;23993;-81
2022/03/08 11:35:24;;;;;;;;;11.75;11.00;;;;;;;;5163962;27;22367;-82
2022/03/08 11:37:50;;;;;;;;;10.00;10.00;;;;;;;;5145776;27;12642;-86
2022/03/08 11:40:20;;;;;;;;;14.00;10.00;;;;;;;;5146178;27;12437;-83
2022/03/08 11:42:47;;;;;;;;;11.00;11.00;;;;;;;;5169730;27;9807;-81
2022/03/08 11:45:25;;;;;;;;;12.50;10.50;;;;;;;;5164334;27;11571;-77
2022/03/08 11:47:58;;;;;;;;;10.00;10.00;;;;;;;;5145488;27;14113;-81
2022/03/08 11:50:36;;;;;;;;;12.75;10.75;;;;;;;;5164881;27;11483;-82
2022/03/08 11:53:08;;;;;;;;;12.25;10.75;;;;;;;;5163905;27;11650;-82
2022/03/08 11:55:39;;;;;;;;;15.75;12.25;;;;;;;;5164493;27;11530;-82
2022/03/08 11:58:08;;;;;;;;;8.50;8.50;;;;;;;;5165079;27;11456;-81
2022/03/08 12:00:44;;;;;;;;;9.75;8.75;;;;;;;;5171462;27;22473;-79
2022/03/08 12:03:10;;;;;;;;;13.00;9.00;;;;;;;;5185135;27;13342;-82
2022/03/08 12:05:38;;;;;;;;;10.75;10.75;;;;;;;;5176219;27;21354;-80
2022/03/08 12:08:27;;;;;;;;;5.50;5.50;;;;;;;;5173990;27;21997;-80
2022/03/08 12:10:57;;;;;;;;;9.25;7.00;;;;;;;;5160236;27;22292;-79
2022/03/08 12:13:36;;;;;;;;;9.50;8.00;;;;;;;;5175333;27;11485;-82
2022/03/08 12:16:10;;;;;;;;;10.00;8.75;;;;;;;;5172985;27;11476;-80
2022/03/08 12:18:40;;;;;;;;;11.00;6.50;;;;;;;;5174895;27;21486;-79
2022/03/08 12:21:28;;;;;;;;;10.25;7.25;;;;;;;;5173047;27;11472;-81
2022/03/08 12:23:57;;;;;;;;;4.75;4.75;;;;;;;;5163019;27;11454;-80
2022/03/08 12:26:26;;;;;;;;;9.00;8.00;;;;;;;;5172335;27;22116;-79
2022/03/08 12:29:05;;;;;;;;;11.00;10.00;;;;;;;;5173800;27;12082;-81
2022/03/08 12:31:30;;;;;;;;;10.00;10.00;;;;;;;;5155852;27;24405;-80
2022/03/08 12:34:00;;;;;;;;;8.25;6.00;;;;;;;;5171772;27;11642;-81
2022/03/08 12:36:26;;;;;;;;;9.25;9.25;;;;;;;;5172199;27;22616;-80
2022/03/08 12:38:51;;;;;;;;;11.00;10.00;;;;;;;;5174869;27;13087;-82
2022/03/08 12:41:23;;;;;;;;;8.50;8.00;;;;;;;;5182902;27;23039;-81
2022/03/08 12:43:55;;;;;;;;;8.00;8.00;;;;;;;;5183620;27;23609;-80
2022/03/08 12:46:20;;;;;;;;;5.75;5.00;;;;;;;;5185444;27;11400;-81
2022/03/08 12:48:46;;;;;;;;;8.50;6.00;;;;;;;;5185237;27;11492;-81
2022/03/08 12:51:12;;;;;;;;;8.25;6.50;;;;;;;;5184810;27;10536;-82
2022/03/08 12:53:39;;;;;;;;;9.25;8.00;;;;;;;;5185026;27;8786;-81
2022/03/08 12:56:11;;;;;;;;;4.75;3.00;;;;;;;;5185207;27;11503;-81
2022/03/08 12:58:37;;;;;;;;;11.00;6.00;;;;;;;;5185042;27;11433;-83
2022/03/08 13:01:09;;;;;;;;;5.00;4.00;;;;;;;;5184436;27;21502;-81
2022/03/08 13:03:36;;;;;;;;;5.00;5.00;;;;;;;;5164703;27;23923;-81
2022/03/08 13:06:05;;;;;;;;;7.75;6.50;;;;;;;;5184947;27;11432;-81
2022/03/08 13:08:31;;;;;;;;;7.50;6.25;;;;;;;;5185135;27;12539;-82
2022/03/08 13:10:58;;;;;;;;;8.00;8.00;;;;;;;;5184488;27;11414;-81
2022/03/08 13:13:23;;;;;;;;;5.00;5.00;;;;;;;;5184189;27;12295;-81
2022/03/08 13:15:49;;;;;;;;;9.00;7.25;;;;;;;;5183991;27;11579;-80
2022/03/08 13:18:28;;;;;;;;;8.75;6.00;;;;;;;;5166034;27;13346;-81
2022/03/08 13:20:54;;;;;;;;;5.00;5.00;;;;;;;;5183996;27;11438;-81
2022/03/08 13:23:22;;;;;;;;;5.75;5.75;;;;;;;;5166157;27;14065;-81
2022/03/08 13:25:49;;;;;;;;;6.25;6.25;;;;;;;;5164990;27;11433;-82
2022/03/08 13:28:18;;;;;;;;;7.00;5.00;;;;;;;;5183653;27;11412;-81
2022/03/08 13:30:44;;;;;;;;;6.50;4.00;;;;;;;;5183969;27;11464;-81
2022/03/08 13:33:20;;;;;;;;;7.00;5.00;;;;;;;;5183807;27;11464;-81
2022/03/08 13:35:57;;;;;;;;;11.00;7.50;;;;;;;;5184658;27;10882;-81
2022/03/08 13:38:49;;;;;;;;;3.00;3.00;;;;;;;;5184233;27;21576;-82
2022/03/08 13:41:18;;;;;;;;;4.00;3.25;;;;;;;;5179071;27;22742;-81
2022/03/08 13:43:45;;;;;;;;;4.25;4.00;;;;;;;;5182863;27;13080;-81
2022/03/08 13:46:18;;;;;;;;;6.75;6.75;;;;;;;;5184066;27;11405;-81
2022/03/08 13:48:45;;;;;;;;;3.00;3.00;;;;;;;;5183837;27;11632;-80
2022/03/08 13:51:10;;;;;;;;;5.00;5.00;;;;;;;;5184425;27;11622;-80
2022/03/08 13:53:36;;;;;;;;;3.75;3.75;;;;;;;;5184199;27;11556;-81
2022/03/08 13:56:05;;;;;;;;;3.00;3.00;;;;;;;;5184183;27;11826;-81
2022/03/08 13:58:32;;;;;;;;;4.00;3.50;;;;;;;;5184318;27;9210;-81
2022/03/08 14:00:57;;;;;;;;;6.00;3.50;;;;;;;;5184062;27;11865;-81
2022/03/08 14:03:22;;;;;;;;;7.00;4.00;;;;;;;;5183702;27;11457;-80
2022/03/08 14:05:53;;;;;;;;;4.00;4.00;;;;;;;;5183758;27;11543;-80
2022/03/08 14:08:30;;;;;;;;;2.00;2.00;;;;;;;;5183767;27;8776;-81
2022/03/08 14:10:57;;;;;;;;;3.25;3.25;;;;;;;;5184607;27;12385;-82
2022/03/08 14:13:23;;;;;;;;;5.00;3.00;;;;;;;;5183538;27;12235;-82
2022/03/08 14:16:10;;;;;;;;;3.00;3.00;;;;;;;;5183434;27;11853;-80
2022/03/08 14:18:47;;;;;;;;;3.50;3.50;;;;;;;;5184246;27;9749;-81
2022/03/08 14:21:22;;;;;;;;;3.50;3.50;;;;;;;;5179842;27;11569;-80
2022/03/08 14:23:47;;;;;;;;;3.00;3.00;;;;;;;;5183181;27;11464;-80
2022/03/08 14:26:15;;;;;;;;;4.00;3.75;;;;;;;;5182647;27;12204;-79